createdAt,value
2023-03-25T00:00:21.702Z,24.60
2023-03-25T00:03:30.513Z,24.50
2023-03-25T00:06:42.154Z,24.40
2023-03-25T00:09:52.223Z,24.30
2023-03-25T00:13:03.871Z,24.40
2023-03-25T00:16:16.997Z,24.50
2023-03-25T00:19:28.176Z,24.70
2023-03-25T00:22:38.102Z,24.70
2023-03-25T00:25:49.304Z,24.60
2023-03-25T00:28:58.935Z,24.50
2023-03-25T00:32:08.430Z,24.50
2023-03-25T00:35:18.015Z,24.50
2023-03-25T00:38:25.481Z,24.40
2023-03-25T00:41:37.721Z,24.30
2023-03-25T00:44:50.320Z,24.20
2023-03-25T00:48:01.911Z,24.20
2023-03-25T00:51:15.031Z,24.10
2023-03-25T00:54:24.990Z,24.00
2023-03-25T00:57:33.935Z,24.00
2023-03-25T01:00:44.765Z,24.00
2023-03-25T01:03:55.380Z,23.90
2023-03-25T01:07:07.415Z,23.90
2023-03-25T01:10:18.738Z,23.80
2023-03-25T01:13:29.901Z,23.80
2023-03-25T01:16:40.094Z,23.80
2023-03-25T01:19:52.467Z,23.80
2023-03-25T01:23:02.199Z,23.80
2023-03-25T01:26:15.196Z,23.80
2023-03-25T01:29:25.603Z,23.80
2023-03-25T01:32:38.179Z,23.80
2023-03-25T01:35:51.452Z,23.70
2023-03-25T01:39:00.829Z,23.70
2023-03-25T01:42:13.404Z,23.70
2023-03-25T01:45:28.836Z,23.70
2023-03-25T01:48:42.393Z,23.60
2023-03-25T01:51:55.204Z,23.60
2023-03-25T01:55:06.211Z,23.60
2023-03-25T01:58:18.230Z,23.60
2023-03-25T02:01:28.861Z,23.60
2023-03-25T02:04:41.256Z,23.50
2023-03-25T02:07:53.360Z,23.60
2023-03-25T02:11:01.951Z,23.50
2023-03-25T02:14:14.269Z,23.50
2023-03-25T02:17:27.807Z,23.40
2023-03-25T02:21:31.646Z,23.40
2023-03-25T02:25:12.257Z,23.40
2023-03-25T02:28:28.114Z,23.40
2023-03-25T02:31:50.277Z,23.30
2023-03-25T02:35:14.417Z,23.30
2023-03-25T02:38:38.414Z,23.30
2023-03-25T02:41:52.201Z,23.30
2023-03-25T02:45:03.443Z,23.20
2023-03-25T02:48:15.637Z,23.20
2023-03-25T02:51:27.906Z,23.20
2023-03-25T02:54:39.846Z,23.20
2023-03-25T02:57:48.230Z,23.10
2023-03-25T03:01:01.537Z,23.10
2023-03-25T03:04:08.751Z,23.10
2023-03-25T03:07:23.358Z,23.20
2023-03-25T03:10:35.398Z,23.10
2023-03-25T03:14:01.027Z,23.10
2023-03-25T03:17:14.204Z,23.00
2023-03-25T03:20:28.497Z,23.00
2023-03-25T03:23:38.907Z,23.10
2023-03-25T03:26:50.764Z,23.00
2023-03-25T03:30:03.622Z,22.90
2023-03-25T03:33:16.033Z,22.90
2023-03-25T03:36:29.204Z,23.00
2023-03-25T03:39:40.226Z,22.90
2023-03-25T03:42:53.610Z,22.80
2023-03-25T03:46:02.280Z,22.80
2023-03-25T03:49:17.080Z,22.80
2023-03-25T03:52:29.293Z,22.90
2023-03-25T03:55:42.812Z,22.80
2023-03-25T03:58:54.907Z,22.70
2023-03-25T04:02:03.911Z,22.70
2023-03-25T04:05:13.015Z,22.70
2023-03-25T04:08:28.397Z,22.70
2023-03-25T04:11:42.489Z,22.70
2023-03-25T04:14:55.000Z,22.60
2023-03-25T04:18:04.384Z,22.60
2023-03-25T04:21:19.276Z,22.70
2023-03-25T04:24:28.430Z,22.60
2023-03-25T04:27:40.535Z,22.60
2023-03-25T04:30:52.045Z,22.60
2023-03-25T04:34:02.866Z,22.50
2023-03-25T04:37:13.934Z,22.60
2023-03-25T04:40:22.439Z,22.50
2023-03-25T04:43:34.047Z,22.50
2023-03-25T04:46:43.361Z,22.50
2023-03-25T04:49:54.415Z,22.40
2023-03-25T04:53:05.773Z,22.50
2023-03-25T04:56:17.693Z,22.50
2023-03-25T04:59:27.881Z,22.40
2023-03-25T05:02:41.625Z,22.40
2023-03-25T05:05:51.780Z,22.40
2023-03-25T05:09:02.348Z,22.40
2023-03-25T05:12:11.997Z,22.40
2023-03-25T05:15:23.216Z,22.30
2023-03-25T05:18:33.254Z,22.30
2023-03-25T05:21:45.887Z,22.30
2023-03-25T05:24:53.918Z,22.30
2023-03-25T05:28:07.846Z,22.20
2023-03-25T05:31:20.495Z,22.20
2023-03-25T05:34:31.862Z,22.20
2023-03-25T05:37:44.528Z,22.30
2023-03-25T05:40:58.322Z,22.20
2023-03-25T05:44:10.225Z,22.10
2023-03-25T05:47:22.566Z,22.10
2023-03-25T05:50:35.425Z,22.10
2023-03-25T05:53:45.401Z,22.20
2023-03-25T05:56:56.284Z,22.10
2023-03-25T06:00:10.080Z,22.00
2023-03-25T06:03:21.365Z,22.00
2023-03-25T06:06:32.698Z,22.00
2023-03-25T06:09:46.253Z,22.00
2023-03-25T06:12:56.074Z,22.00
2023-03-25T06:16:07.693Z,21.90
2023-03-25T06:19:20.935Z,21.90
2023-03-25T06:22:33.865Z,22.00
2023-03-25T06:25:43.125Z,21.90
2023-03-25T06:28:54.514Z,21.90
2023-03-25T06:32:06.753Z,21.80
2023-03-25T06:35:16.576Z,21.90
2023-03-25T06:38:28.092Z,21.90
2023-03-25T06:41:41.624Z,21.80
2023-03-25T06:44:50.449Z,21.80
2023-03-25T06:48:02.203Z,21.70
2023-03-25T06:51:14.882Z,21.70
2023-03-25T06:54:24.883Z,21.80
2023-03-25T06:57:36.867Z,21.70
2023-03-25T07:00:47.631Z,21.60
2023-03-25T07:04:00.750Z,21.60
2023-03-25T07:07:08.151Z,21.70
2023-03-25T07:10:21.133Z,21.70
2023-03-25T07:13:35.779Z,21.60
2023-03-25T07:16:48.512Z,21.50
2023-03-25T07:19:58.645Z,21.60
2023-03-25T07:23:10.167Z,21.60
2023-03-25T07:26:21.834Z,21.50
2023-03-25T07:29:33.981Z,21.50
2023-03-25T07:32:45.580Z,21.50
2023-03-25T07:35:57.484Z,21.60
2023-03-25T07:39:08.571Z,21.50
2023-03-25T07:42:20.460Z,21.60
2023-03-25T07:45:29.323Z,21.70
2023-03-25T07:48:41.829Z,21.80
2023-03-25T07:51:51.836Z,21.90
2023-03-25T07:55:01.112Z,21.90
2023-03-25T07:58:09.964Z,21.80
2023-03-25T08:01:19.697Z,21.70
2023-03-25T08:04:32.958Z,21.60
2023-03-25T08:07:45.434Z,21.60
2023-03-25T08:10:57.169Z,21.50
2023-03-25T08:14:06.690Z,21.50
2023-03-25T08:17:17.778Z,21.50
2023-03-25T08:20:30.429Z,21.50
2023-03-25T08:23:40.706Z,21.60
2023-03-25T08:26:51.131Z,21.80
2023-03-25T08:30:01.695Z,21.90
2023-03-25T08:33:12.903Z,21.90
2023-03-25T08:36:23.926Z,21.90
2023-03-25T08:39:39.838Z,21.80
2023-03-25T08:42:49.879Z,21.70
2023-03-25T08:46:00.648Z,21.60
2023-03-25T08:49:13.035Z,21.60
2023-03-25T08:52:22.075Z,21.50
2023-03-25T08:55:33.297Z,21.50
2023-03-25T08:58:43.780Z,21.50
2023-03-25T09:01:56.332Z,21.70
2023-03-25T09:05:07.024Z,21.80
2023-03-25T09:08:17.897Z,21.90
2023-03-25T09:11:36.020Z,21.90
2023-03-25T09:14:38.335Z,21.80
2023-03-25T09:17:49.154Z,21.70
2023-03-25T09:21:03.269Z,21.70
2023-03-25T09:24:12.908Z,21.60
2023-03-25T09:27:22.277Z,21.50
2023-03-25T09:30:34.607Z,21.50
2023-03-25T09:33:47.416Z,21.50
2023-03-25T09:37:00.097Z,21.60
2023-03-25T09:40:13.803Z,21.80
2023-03-25T09:43:33.893Z,21.90
2023-03-25T09:46:45.625Z,22.00
2023-03-25T09:50:00.873Z,21.90
2023-03-25T09:53:15.362Z,21.80
2023-03-25T09:56:27.698Z,21.70
2023-03-25T09:59:43.509Z,21.70
2023-03-25T10:02:57.726Z,21.60
2023-03-25T10:06:22.624Z,21.50
2023-03-25T10:09:47.742Z,21.70
2023-03-25T10:12:59.192Z,21.80
2023-03-25T10:16:12.297Z,22.00
2023-03-25T10:19:30.547Z,22.00
2023-03-25T10:22:41.843Z,21.90
2023-03-25T10:25:55.045Z,21.80
2023-03-25T10:29:08.971Z,21.70
2023-03-25T10:32:22.357Z,21.70
2023-03-25T10:35:37.781Z,21.70
2023-03-25T10:38:48.678Z,21.70
2023-03-25T10:42:02.839Z,21.60
2023-03-25T10:45:20.017Z,21.70
2023-03-25T10:48:32.645Z,21.80
2023-03-25T10:51:45.237Z,21.90
2023-03-25T10:54:55.693Z,22.00
2023-03-25T10:58:06.516Z,22.10
2023-03-25T11:01:20.134Z,22.30
2023-03-25T11:04:34.450Z,22.40
2023-03-25T11:07:44.489Z,22.50
2023-03-25T11:10:58.088Z,22.60
2023-03-25T11:14:10.226Z,22.70
2023-03-25T11:17:22.424Z,22.90
2023-03-25T11:20:33.753Z,23.00
2023-03-25T11:23:46.305Z,23.10
2023-03-25T11:26:58.982Z,23.20
2023-03-25T11:30:12.129Z,23.30
2023-03-25T11:33:23.830Z,23.40
2023-03-25T11:36:34.564Z,23.50
2023-03-25T11:39:47.303Z,23.60
2023-03-25T11:42:58.126Z,23.70
2023-03-25T11:46:17.452Z,23.80
2023-03-25T11:49:30.177Z,23.90
2023-03-25T11:52:41.786Z,24.00
2023-03-25T11:55:53.139Z,24.00
2023-03-25T11:59:06.497Z,24.10
2023-03-25T12:02:21.622Z,24.20
2023-03-25T12:05:32.423Z,24.20
2023-03-25T12:08:50.733Z,24.40
2023-03-25T12:12:15.725Z,24.40
2023-03-25T12:15:29.538Z,24.40
2023-03-25T12:18:50.974Z,24.30
2023-03-25T12:22:18.208Z,24.20
2023-03-25T12:25:36.378Z,24.10
2023-03-25T12:29:04.488Z,24.10
2023-03-25T12:32:26.799Z,24.20
2023-03-25T12:35:41.483Z,24.30
2023-03-25T12:38:56.993Z,24.40
2023-03-25T12:42:09.296Z,24.50
2023-03-25T12:45:34.785Z,24.40
2023-03-25T12:49:07.643Z,24.30
2023-03-25T12:52:21.341Z,24.20
2023-03-25T12:55:47.116Z,24.10
2023-03-25T12:59:27.687Z,24.10
2023-03-25T13:02:49.343Z,24.10
2023-03-25T13:06:06.880Z,24.20
2023-03-25T13:09:19.167Z,24.30
2023-03-25T13:12:35.540Z,24.40
2023-03-25T13:15:50.068Z,24.40
2023-03-25T13:19:03.001Z,24.40
2023-03-25T13:22:17.456Z,24.40
2023-03-25T13:25:33.317Z,24.20
2023-03-25T13:28:44.332Z,24.10
2023-03-25T13:31:54.068Z,24.10
2023-03-25T13:35:06.468Z,24.20
2023-03-25T13:38:21.084Z,24.30
2023-03-25T13:41:36.075Z,24.40
2023-03-25T13:44:46.744Z,24.50
2023-03-25T13:47:58.637Z,24.50
2023-03-25T13:51:11.160Z,24.50
2023-03-25T13:54:23.145Z,24.40
2023-03-25T13:58:15.223Z,24.30
2023-03-25T14:01:58.518Z,24.20
2023-03-25T14:05:19.630Z,24.20
2023-03-25T14:08:55.642Z,24.30
2023-03-25T14:12:08.914Z,24.40
2023-03-25T14:15:16.970Z,24.50
2023-03-25T14:18:27.644Z,24.60
2023-03-25T14:21:55.530Z,24.60
2023-03-25T14:25:07.260Z,24.50
2023-03-25T14:28:17.838Z,24.40
2023-03-25T14:31:33.718Z,24.20
2023-03-25T14:34:43.399Z,24.20
2023-03-25T14:37:55.352Z,24.20
2023-03-25T14:41:07.673Z,24.20
2023-03-25T14:44:24.433Z,24.30
2023-03-25T14:47:40.048Z,24.40
2023-03-25T14:50:49.406Z,24.40
2023-03-25T14:54:02.733Z,24.60
2023-03-25T14:57:11.508Z,24.60
2023-03-25T15:00:29.543Z,24.50
2023-03-25T15:03:40.860Z,24.40
2023-03-25T15:06:52.793Z,24.30
2023-03-25T15:10:04.184Z,24.20
2023-03-25T15:13:16.205Z,24.10
2023-03-25T15:16:35.077Z,24.10
2023-03-25T15:20:18.574Z,24.10
2023-03-25T15:23:34.506Z,24.30
2023-03-25T15:26:45.155Z,24.40
2023-03-25T15:30:03.025Z,24.50
2023-03-25T15:33:19.248Z,24.60
2023-03-25T15:36:52.216Z,24.70
2023-03-25T15:40:14.801Z,24.80
2023-03-25T15:44:11.996Z,25.00
2023-03-25T15:47:32.052Z,25.10
2023-03-25T15:51:03.555Z,25.10
2023-03-25T15:57:54.966Z,24.90
2023-03-25T16:01:06.794Z,24.80
2023-03-25T16:04:19.066Z,24.70
2023-03-25T16:07:32.055Z,24.50
2023-03-25T16:10:42.749Z,24.50
2023-03-25T16:13:53.368Z,24.70
2023-03-25T16:17:05.640Z,24.90
2023-03-25T16:20:18.778Z,25.10
2023-03-25T16:23:28.876Z,25.10
2023-03-25T16:26:45.350Z,25.00
2023-03-25T16:29:56.233Z,24.90
2023-03-25T16:33:20.187Z,24.90
2023-03-25T16:36:29.111Z,24.80
2023-03-25T16:39:39.572Z,24.80
2023-03-25T16:42:48.843Z,24.70
2023-03-25T16:46:03.812Z,24.60
2023-03-25T16:49:19.426Z,24.60
2023-03-25T16:52:34.169Z,24.50
2023-03-25T16:55:52.266Z,24.50
2023-03-25T16:59:05.520Z,24.50
2023-03-25T17:02:26.954Z,24.70
2023-03-25T17:05:37.859Z,24.70
2023-03-25T17:08:50.569Z,24.90
2023-03-25T17:12:00.205Z,24.90
2023-03-25T17:15:15.268Z,24.80
2023-03-25T17:18:25.421Z,24.70
2023-03-25T17:21:35.191Z,24.60
2023-03-25T17:24:48.114Z,24.50
2023-03-25T17:27:59.838Z,24.40
2023-03-25T17:31:29.825Z,24.30
2023-03-25T17:34:43.392Z,24.30
2023-03-25T17:37:54.568Z,24.40
2023-03-25T17:41:09.281Z,24.60
2023-03-25T17:44:20.998Z,24.70
2023-03-25T17:47:31.267Z,24.60
2023-03-25T17:50:43.965Z,24.50
2023-03-25T17:53:53.034Z,24.40
2023-03-25T17:57:03.149Z,24.30
2023-03-25T18:00:19.206Z,24.20
2023-03-25T18:03:31.427Z,24.10
2023-03-25T18:06:44.074Z,24.10
2023-03-25T18:09:54.574Z,24.20
2023-03-25T18:13:05.951Z,24.40
2023-03-25T18:16:18.353Z,24.50
2023-03-25T18:19:32.117Z,24.50
2023-03-25T18:22:44.489Z,24.50
2023-03-25T18:25:55.604Z,24.40
2023-03-25T18:29:08.533Z,24.30
2023-03-25T18:32:19.334Z,24.20
2023-03-25T18:35:33.254Z,24.30
2023-03-25T18:38:45.814Z,24.40
2023-03-25T18:41:58.511Z,24.50
2023-03-25T18:45:11.933Z,24.60
2023-03-25T18:48:23.230Z,24.50
2023-03-25T18:51:33.151Z,24.40
2023-03-25T18:54:42.229Z,24.30
2023-03-25T18:57:54.806Z,24.20
2023-03-25T19:01:04.670Z,24.10
2023-03-25T19:04:14.627Z,24.10
2023-03-25T19:07:26.367Z,24.00
2023-03-25T19:10:37.687Z,24.10
2023-03-25T19:13:49.981Z,24.30
2023-03-25T19:17:04.148Z,24.40
2023-03-25T19:20:14.158Z,24.50
2023-03-25T19:23:24.831Z,24.60
2023-03-25T19:26:39.789Z,24.60
2023-03-25T19:29:51.803Z,24.50
2023-03-25T19:32:59.348Z,24.40
2023-03-25T19:36:12.834Z,24.30
2023-03-25T19:39:23.318Z,24.20
2023-03-25T19:42:33.385Z,24.10
2023-03-25T19:45:43.971Z,24.20
2023-03-25T19:48:53.824Z,24.10
2023-03-25T19:52:06.607Z,24.10
2023-03-25T19:55:17.270Z,24.20
2023-03-25T19:58:27.627Z,24.30
2023-03-25T20:01:38.372Z,24.50
2023-03-25T20:04:50.436Z,24.50
2023-03-25T20:07:58.202Z,24.40
2023-03-25T20:11:17.079Z,24.30
2023-03-25T20:14:30.773Z,24.20
2023-03-25T20:17:41.808Z,24.10
2023-03-25T20:20:54.336Z,24.00
2023-03-25T20:24:07.135Z,23.90
2023-03-25T20:27:16.162Z,23.90
2023-03-25T20:30:27.237Z,23.80
2023-03-25T20:33:38.407Z,23.80
2023-03-25T20:36:50.059Z,24.00
2023-03-25T20:39:59.987Z,24.10
2023-03-25T20:43:11.219Z,24.30
2023-03-25T20:46:21.635Z,24.40
2023-03-25T20:49:30.131Z,24.30
2023-03-25T20:52:40.501Z,24.20
2023-03-25T20:55:53.946Z,24.10
2023-03-25T20:59:04.403Z,24.10
2023-03-25T21:02:18.850Z,24.00
2023-03-25T21:05:29.915Z,24.00
2023-03-25T21:08:40.373Z,23.90
2023-03-25T21:11:51.137Z,23.90
2023-03-25T21:15:01.472Z,24.00
2023-03-25T21:18:10.929Z,24.10
2023-03-25T21:21:22.583Z,24.30
2023-03-25T21:24:36.383Z,24.50
2023-03-25T21:27:47.461Z,24.60
2023-03-25T21:31:09.767Z,24.50
2023-03-25T21:34:19.950Z,24.50
2023-03-25T21:37:30.036Z,24.40
2023-03-25T21:40:39.519Z,24.30
2023-03-25T21:43:50.963Z,24.20
2023-03-25T21:47:01.969Z,24.20
2023-03-25T21:50:17.396Z,24.20
2023-03-25T21:53:29.720Z,24.20
2023-03-25T21:56:42.360Z,24.10
2023-03-25T21:59:53.482Z,24.20
2023-03-25T22:03:07.489Z,24.30
2023-03-25T22:06:17.364Z,24.50
2023-03-25T22:09:27.111Z,24.70
2023-03-25T22:12:38.143Z,24.70
2023-03-25T22:15:46.717Z,24.60
2023-03-25T22:18:57.417Z,24.40
2023-03-25T22:22:08.604Z,24.40
2023-03-25T22:25:22.037Z,24.40
2023-03-25T22:28:33.852Z,24.30
2023-03-25T22:31:43.856Z,24.20
2023-03-25T22:34:55.634Z,24.30
2023-03-25T22:38:06.978Z,24.30
2023-03-25T22:41:18.988Z,24.30
2023-03-25T22:44:29.459Z,24.20
2023-03-25T22:47:39.027Z,24.20
2023-03-25T22:50:50.845Z,24.30
2023-03-25T22:54:01.839Z,24.50
2023-03-25T22:57:10.729Z,24.60
2023-03-25T23:00:26.245Z,24.70
2023-03-25T23:03:38.383Z,24.60
2023-03-25T23:07:00.555Z,24.50
2023-03-25T23:09:59.889Z,24.40
2023-03-25T23:13:11.688Z,24.20
2023-03-25T23:16:22.464Z,24.20
2023-03-25T23:19:32.588Z,24.20
2023-03-25T23:22:45.674Z,24.30
2023-03-25T23:26:08.357Z,24.50
2023-03-25T23:29:18.560Z,24.60
2023-03-25T23:32:30.649Z,24.50
2023-03-25T23:35:44.860Z,24.40
2023-03-25T23:38:56.382Z,24.30
2023-03-25T23:42:06.222Z,24.20
2023-03-25T23:45:20.704Z,24.10
2023-03-25T23:48:33.119Z,24.00
2023-03-25T23:51:43.336Z,23.90
2023-03-25T23:54:56.891Z,23.90
2023-03-25T23:58:07.950Z,23.90
